sensor_id;sensor_type;location;lat;lon;timestamp;temperature;humidity
851;DHT22;412;51.400;7.480;2023-02-13T00:01:31;11.60;99.90
851;DHT22;412;51.400;7.480;2023-02-13T00:03:58;11.60;99.90
851;DHT22;412;51.400;7.480;2023-02-13T00:06:24;11.60;99.90
851;DHT22;412;51.400;7.480;2023-02-13T00:08:50;11.60;99.90
851;DHT22;412;51.400;7.480;2023-02-13T00:11:15;11.60;99.90
851;DHT22;412;51.400;7.480;2023-02-13T00:13:41;11.60;99.90
851;DHT22;412;51.400;7.480;2023-02-13T00:16:08;11.60;99.90
851;DHT22;412;51.400;7.480;2023-02-13T00:18:35;11.60;99.90
851;DHT22;412;51.400;7.480;2023-02-13T00:21:10;11.60;99.90
851;DHT22;412;51.400;7.480;2023-02-13T00:23:37;11.60;99.90
851;DHT22;412;51.400;7.480;2023-02-13T00:26:09;11.60;99.90
851;DHT22;412;51.400;7.480;2023-02-13T00:28:35;11.60;99.90
851;DHT22;412;51.400;7.480;2023-02-13T00:31:12;11.60;99.90
851;DHT22;412;51.400;7.480;2023-02-13T00:33:38;11.60;99.90
851;DHT22;412;51.400;7.480;2023-02-13T00:36:07;11.50;99.90
851;DHT22;412;51.400;7.480;2023-02-13T00:38:33;11.50;99.90
851;DHT22;412;51.400;7.480;2023-02-13T00:40:59;11.40;99.90
851;DHT22;412;51.400;7.480;2023-02-13T00:43:24;11.40;99.90
851;DHT22;412;51.400;7.480;2023-02-13T00:45:50;11.40;99.90
851;DHT22;412;51.400;7.480;2023-02-13T00:48:16;11.50;99.90
851;DHT22;412;51.400;7.480;2023-02-13T00:50:42;11.50;99.90
851;DHT22;412;51.400;7.480;2023-02-13T00:53:08;11.50;99.90
851;DHT22;412;51.400;7.480;2023-02-13T00:55:33;11.50;99.90
851;DHT22;412;51.400;7.480;2023-02-13T00:58:00;11.50;99.90
851;DHT22;412;51.400;7.480;2023-02-13T01:00:26;11.30;99.90
851;DHT22;412;51.400;7.480;2023-02-13T01:02:51;11.20;99.90
851;DHT22;412;51.400;7.480;2023-02-13T01:05:17;11.30;99.90
851;DHT22;412;51.400;7.480;2023-02-13T01:07:43;11.20;99.90
851;DHT22;412;51.400;7.480;2023-02-13T01:10:09;11.30;99.90
851;DHT22;412;51.400;7.480;2023-02-13T01:12:35;11.30;99.90
851;DHT22;412;51.400;7.480;2023-02-13T01:15:01;11.40;99.90
851;DHT22;412;51.400;7.480;2023-02-13T01:17:27;11.30;99.90
851;DHT22;412;51.400;7.480;2023-02-13T01:19:53;11.30;99.90
851;DHT22;412;51.400;7.480;2023-02-13T01:22:18;11.30;99.90
851;DHT22;412;51.400;7.480;2023-02-13T01:24:44;11.30;99.90
851;DHT22;412;51.400;7.480;2023-02-13T01:27:10;11.40;99.90
851;DHT22;412;51.400;7.480;2023-02-13T01:29:35;11.40;99.90
851;DHT22;412;51.400;7.480;2023-02-13T01:32:01;11.40;99.90
851;DHT22;412;51.400;7.480;2023-02-13T01:34:30;11.40;99.90
851;DHT22;412;51.400;7.480;2023-02-13T01:36:56;11.40;99.90
851;DHT22;412;51.400;7.480;2023-02-13T01:39:22;11.50;99.90
851;DHT22;412;51.400;7.480;2023-02-13T01:41:47;11.40;99.90
851;DHT22;412;51.400;7.480;2023-02-13T01:48:11;11.20;99.90
851;DHT22;412;51.400;7.480;2023-02-13T01:50:38;11.10;99.90
851;DHT22;412;51.400;7.480;2023-02-13T01:53:33;11.00;99.90
851;DHT22;412;51.400;7.480;2023-02-13T01:56:18;11.00;99.90
851;DHT22;412;51.400;7.480;2023-02-13T01:58:46;11.00;99.90
851;DHT22;412;51.400;7.480;2023-02-13T02:01:15;10.80;99.90
851;DHT22;412;51.400;7.480;2023-02-13T02:03:48;10.80;99.90
851;DHT22;412;51.400;7.480;2023-02-13T02:06:20;10.80;99.90
851;DHT22;412;51.400;7.480;2023-02-13T02:08:49;10.70;99.90
851;DHT22;412;51.400;7.480;2023-02-13T02:11:27;10.60;99.90
851;DHT22;412;51.400;7.480;2023-02-13T02:13:56;10.70;99.90
851;DHT22;412;51.400;7.480;2023-02-13T02:16:22;10.60;99.90
851;DHT22;412;51.400;7.480;2023-02-13T02:18:49;10.40;99.90
851;DHT22;412;51.400;7.480;2023-02-13T02:26:57;10.70;99.90
851;DHT22;412;51.400;7.480;2023-02-13T02:40:51;10.30;99.90
851;DHT22;412;51.400;7.480;2023-02-13T02:43:25;10.30;99.90
851;DHT22;412;51.400;7.480;2023-02-13T02:46:05;10.30;99.90
851;DHT22;412;51.400;7.480;2023-02-13T02:48:41;10.20;99.90
851;DHT22;412;51.400;7.480;2023-02-13T02:54:37;10.20;99.90
851;DHT22;412;51.400;7.480;2023-02-13T02:57:27;10.30;99.90
851;DHT22;412;51.400;7.480;2023-02-13T03:00:16;10.40;99.90
851;DHT22;412;51.400;7.480;2023-02-13T03:03:01;10.20;99.90
851;DHT22;412;51.400;7.480;2023-02-13T03:05:47;10.10;99.90
851;DHT22;412;51.400;7.480;2023-02-13T03:08:34;10.20;99.90
851;DHT22;412;51.400;7.480;2023-02-13T03:11:21;10.20;99.90
851;DHT22;412;51.400;7.480;2023-02-13T03:14:06;10.40;99.90
851;DHT22;412;51.400;7.480;2023-02-13T03:16:33;10.40;99.90
851;DHT22;412;51.400;7.480;2023-02-13T03:22:27;10.50;99.90
851;DHT22;412;51.400;7.480;2023-02-13T03:25:11;10.60;99.90
851;DHT22;412;51.400;7.480;2023-02-13T03:27:57;10.70;99.90
851;DHT22;412;51.400;7.480;2023-02-13T03:31:08;10.70;99.90
851;DHT22;412;51.400;7.480;2023-02-13T03:33:54;10.70;99.90
851;DHT22;412;51.400;7.480;2023-02-13T03:37:06;10.70;99.90
851;DHT22;412;51.400;7.480;2023-02-13T03:40:06;10.40;99.90
851;DHT22;412;51.400;7.480;2023-02-13T03:43:03;10.40;99.90
851;DHT22;412;51.400;7.480;2023-02-13T03:45:36;10.30;99.90
851;DHT22;412;51.400;7.480;2023-02-13T03:48:23;10.20;99.90
851;DHT22;412;51.400;7.480;2023-02-13T03:51:09;10.20;99.90
851;DHT22;412;51.400;7.480;2023-02-13T03:53:39;10.20;99.90
851;DHT22;412;51.400;7.480;2023-02-13T03:56:08;10.20;99.90
851;DHT22;412;51.400;7.480;2023-02-13T03:58:55;10.40;99.90
851;DHT22;412;51.400;7.480;2023-02-13T04:01:45;10.50;99.90
851;DHT22;412;51.400;7.480;2023-02-13T04:04:45;10.50;99.90
851;DHT22;412;51.400;7.480;2023-02-13T04:07:16;10.50;99.90
851;DHT22;412;51.400;7.480;2023-02-13T04:09:59;10.50;99.90
851;DHT22;412;51.400;7.480;2023-02-13T04:12:38;10.50;99.90
851;DHT22;412;51.400;7.480;2023-02-13T04:15:11;10.30;99.90
851;DHT22;412;51.400;7.480;2023-02-13T04:17:44;10.10;99.90
851;DHT22;412;51.400;7.480;2023-02-13T04:20:12;10.10;99.90
851;DHT22;412;51.400;7.480;2023-02-13T04:22:45;10.00;99.90
851;DHT22;412;51.400;7.480;2023-02-13T04:25:14;9.80;99.90
851;DHT22;412;51.400;7.480;2023-02-13T04:27:40;9.80;99.90
851;DHT22;412;51.400;7.480;2023-02-13T04:30:06;9.80;99.90
851;DHT22;412;51.400;7.480;2023-02-13T04:32:33;9.90;99.90
851;DHT22;412;51.400;7.480;2023-02-13T04:35:01;9.90;99.90
851;DHT22;412;51.400;7.480;2023-02-13T04:37:27;10.00;99.90
851;DHT22;412;51.400;7.480;2023-02-13T04:39:53;10.00;99.90
851;DHT22;412;51.400;7.480;2023-02-13T04:42:18;10.00;99.90
851;DHT22;412;51.400;7.480;2023-02-13T04:44:44;9.90;99.90
851;DHT22;412;51.400;7.480;2023-02-13T04:47:10;10.00;99.90
851;DHT22;412;51.400;7.480;2023-02-13T04:49:35;10.00;99.90
851;DHT22;412;51.400;7.480;2023-02-13T04:52:01;10.10;99.90
851;DHT22;412;51.400;7.480;2023-02-13T04:54:27;10.20;99.90
851;DHT22;412;51.400;7.480;2023-02-13T04:56:53;10.30;99.90
851;DHT22;412;51.400;7.480;2023-02-13T04:59:18;10.40;99.90
851;DHT22;412;51.400;7.480;2023-02-13T05:01:44;10.50;99.90
851;DHT22;412;51.400;7.480;2023-02-13T05:04:10;10.60;99.90
851;DHT22;412;51.400;7.480;2023-02-13T05:06:41;10.60;99.90
851;DHT22;412;51.400;7.480;2023-02-13T05:09:06;10.70;99.90
851;DHT22;412;51.400;7.480;2023-02-13T05:11:32;10.80;99.90
851;DHT22;412;51.400;7.480;2023-02-13T05:13:58;10.70;99.90
851;DHT22;412;51.400;7.480;2023-02-13T05:16:24;10.70;99.90
851;DHT22;412;51.400;7.480;2023-02-13T05:18:49;10.80;99.90
851;DHT22;412;51.400;7.480;2023-02-13T05:21:20;10.80;99.90
851;DHT22;412;51.400;7.480;2023-02-13T05:24:05;10.80;99.90
851;DHT22;412;51.400;7.480;2023-02-13T05:26:30;10.80;99.90
851;DHT22;412;51.400;7.480;2023-02-13T05:28:56;10.80;99.90
851;DHT22;412;51.400;7.480;2023-02-13T05:31:41;10.80;99.90
851;DHT22;412;51.400;7.480;2023-02-13T05:34:06;10.70;99.90
851;DHT22;412;51.400;7.480;2023-02-13T05:36:32;10.70;99.90
851;DHT22;412;51.400;7.480;2023-02-13T05:38:58;10.70;99.90
851;DHT22;412;51.400;7.480;2023-02-13T05:41:23;10.80;99.90
851;DHT22;412;51.400;7.480;2023-02-13T05:43:49;10.70;99.90
851;DHT22;412;51.400;7.480;2023-02-13T05:46:15;10.40;99.90
851;DHT22;412;51.400;7.480;2023-02-13T05:48:40;10.30;99.90
851;DHT22;412;51.400;7.480;2023-02-13T05:51:06;10.30;99.90
851;DHT22;412;51.400;7.480;2023-02-13T05:53:32;10.30;99.90
851;DHT22;412;51.400;7.480;2023-02-13T05:56:03;10.30;99.90
851;DHT22;412;51.400;7.480;2023-02-13T05:58:29;10.40;99.90
851;DHT22;412;51.400;7.480;2023-02-13T06:00:56;10.30;99.90
851;DHT22;412;51.400;7.480;2023-02-13T06:03:26;10.20;99.90
851;DHT22;412;51.400;7.480;2023-02-13T06:05:53;10.30;99.90
851;DHT22;412;51.400;7.480;2023-02-13T06:08:19;10.40;99.90
851;DHT22;412;51.400;7.480;2023-02-13T06:10:46;10.40;99.90
851;DHT22;412;51.400;7.480;2023-02-13T06:13:12;10.40;99.90
851;DHT22;412;51.400;7.480;2023-02-13T06:15:39;10.40;99.90
851;DHT22;412;51.400;7.480;2023-02-13T06:18:05;10.40;99.90
851;DHT22;412;51.400;7.480;2023-02-13T06:20:30;10.40;99.90
851;DHT22;412;51.400;7.480;2023-02-13T06:22:56;10.40;99.90
851;DHT22;412;51.400;7.480;2023-02-13T06:25:22;10.30;99.90
851;DHT22;412;51.400;7.480;2023-02-13T06:27:47;10.30;99.90
851;DHT22;412;51.400;7.480;2023-02-13T06:30:14;10.20;99.90
851;DHT22;412;51.400;7.480;2023-02-13T06:32:41;10.30;99.90
851;DHT22;412;51.400;7.480;2023-02-13T06:35:07;10.30;99.90
851;DHT22;412;51.400;7.480;2023-02-13T06:37:33;10.30;99.90
851;DHT22;412;51.400;7.480;2023-02-13T06:39:59;10.20;99.90
851;DHT22;412;51.400;7.480;2023-02-13T06:42:25;10.20;99.90
851;DHT22;412;51.400;7.480;2023-02-13T06:44:51;10.10;99.90
851;DHT22;412;51.400;7.480;2023-02-13T06:47:19;10.10;99.90
851;DHT22;412;51.400;7.480;2023-02-13T06:49:45;10.10;99.90
851;DHT22;412;51.400;7.480;2023-02-13T06:52:10;10.10;99.90
851;DHT22;412;51.400;7.480;2023-02-13T06:54:36;10.00;99.90
851;DHT22;412;51.400;7.480;2023-02-13T06:57:04;10.00;99.90
851;DHT22;412;51.400;7.480;2023-02-13T06:59:29;10.00;99.90
851;DHT22;412;51.400;7.480;2023-02-13T07:01:55;10.00;99.90
851;DHT22;412;51.400;7.480;2023-02-13T07:04:21;10.00;99.90
851;DHT22;412;51.400;7.480;2023-02-13T07:06:47;9.90;99.90
851;DHT22;412;51.400;7.480;2023-02-13T07:09:12;9.90;99.90
851;DHT22;412;51.400;7.480;2023-02-13T07:11:38;10.00;99.90
851;DHT22;412;51.400;7.480;2023-02-13T07:14:08;10.20;99.90
851;DHT22;412;51.400;7.480;2023-02-13T07:16:34;10.70;99.90
851;DHT22;412;51.400;7.480;2023-02-13T07:19:00;11.10;99.90
851;DHT22;412;51.400;7.480;2023-02-13T07:21:25;11.30;99.90
851;DHT22;412;51.400;7.480;2023-02-13T07:23:51;11.20;99.90
851;DHT22;412;51.400;7.480;2023-02-13T07:26:17;11.10;99.90
851;DHT22;412;51.400;7.480;2023-02-13T07:28:43;11.00;99.90
851;DHT22;412;51.400;7.480;2023-02-13T07:31:09;10.90;99.90
851;DHT22;412;51.400;7.480;2023-02-13T07:33:35;10.70;99.90
851;DHT22;412;51.400;7.480;2023-02-13T07:36:00;10.60;99.90
851;DHT22;412;51.400;7.480;2023-02-13T07:38:29;10.50;99.90
851;DHT22;412;51.400;7.480;2023-02-13T07:40:59;10.50;99.90
851;DHT22;412;51.400;7.480;2023-02-13T07:43:25;10.40;99.90
851;DHT22;412;51.400;7.480;2023-02-13T07:45:51;10.40;99.90
851;DHT22;412;51.400;7.480;2023-02-13T07:48:22;10.40;99.90
851;DHT22;412;51.400;7.480;2023-02-13T07:50:48;10.40;99.90
851;DHT22;412;51.400;7.480;2023-02-13T07:53:14;10.40;99.90
851;DHT22;412;51.400;7.480;2023-02-13T07:55:40;10.40;99.90
851;DHT22;412;51.400;7.480;2023-02-13T07:58:06;10.40;99.90
851;DHT22;412;51.400;7.480;2023-02-13T08:00:32;10.40;99.90
851;DHT22;412;51.400;7.480;2023-02-13T08:02:59;10.40;99.90
851;DHT22;412;51.400;7.480;2023-02-13T08:05:24;10.50;99.90
851;DHT22;412;51.400;7.480;2023-02-13T08:07:51;10.40;99.90
851;DHT22;412;51.400;7.480;2023-02-13T08:10:17;10.50;99.90
851;DHT22;412;51.400;7.480;2023-02-13T08:13:01;10.50;99.90
851;DHT22;412;51.400;7.480;2023-02-13T08:15:27;10.40;99.90
851;DHT22;412;51.400;7.480;2023-02-13T08:17:52;10.40;99.90
851;DHT22;412;51.400;7.480;2023-02-13T08:20:18;10.40;99.90
851;DHT22;412;51.400;7.480;2023-02-13T08:22:44;10.50;99.90
851;DHT22;412;51.400;7.480;2023-02-13T08:25:10;10.50;99.90
851;DHT22;412;51.400;7.480;2023-02-13T08:27:35;10.50;99.90
851;DHT22;412;51.400;7.480;2023-02-13T08:30:02;10.50;99.90
851;DHT22;412;51.400;7.480;2023-02-13T08:32:28;10.60;99.90
851;DHT22;412;51.400;7.480;2023-02-13T08:34:54;10.70;99.90
851;DHT22;412;51.400;7.480;2023-02-13T08:37:19;10.80;99.90
851;DHT22;412;51.400;7.480;2023-02-13T08:39:45;10.80;99.90
851;DHT22;412;51.400;7.480;2023-02-13T08:42:11;10.80;99.90
851;DHT22;412;51.400;7.480;2023-02-13T08:44:37;10.90;99.90
851;DHT22;412;51.400;7.480;2023-02-13T08:47:06;10.90;99.90
851;DHT22;412;51.400;7.480;2023-02-13T08:49:32;11.00;99.90
851;DHT22;412;51.400;7.480;2023-02-13T08:51:59;11.10;99.90
851;DHT22;412;51.400;7.480;2023-02-13T08:54:25;11.20;99.90
851;DHT22;412;51.400;7.480;2023-02-13T08:56:53;11.20;99.90
851;DHT22;412;51.400;7.480;2023-02-13T08:59:18;11.20;99.90
851;DHT22;412;51.400;7.480;2023-02-13T09:01:44;11.20;99.90
851;DHT22;412;51.400;7.480;2023-02-13T09:04:10;11.30;99.90
851;DHT22;412;51.400;7.480;2023-02-13T09:06:36;11.30;99.90
851;DHT22;412;51.400;7.480;2023-02-13T09:09:04;11.30;99.90
851;DHT22;412;51.400;7.480;2023-02-13T09:11:30;11.70;99.90
851;DHT22;412;51.400;7.480;2023-02-13T09:13:55;12.30;99.90
851;DHT22;412;51.400;7.480;2023-02-13T09:16:21;12.80;99.90
851;DHT22;412;51.400;7.480;2023-02-13T09:18:48;13.40;99.90
851;DHT22;412;51.400;7.480;2023-02-13T09:21:14;13.80;99.90
851;DHT22;412;51.400;7.480;2023-02-13T09:23:40;14.30;99.90
851;DHT22;412;51.400;7.480;2023-02-13T09:26:12;14.70;99.90
851;DHT22;412;51.400;7.480;2023-02-13T09:28:39;15.10;99.90
851;DHT22;412;51.400;7.480;2023-02-13T09:31:06;15.40;99.90
851;DHT22;412;51.400;7.480;2023-02-13T09:33:33;15.80;99.90
851;DHT22;412;51.400;7.480;2023-02-13T09:36:03;16.10;99.90
851;DHT22;412;51.400;7.480;2023-02-13T09:38:30;16.40;97.50
851;DHT22;412;51.400;7.480;2023-02-13T09:41:00;16.60;96.10
851;DHT22;412;51.400;7.480;2023-02-13T09:43:32;16.80;95.80
851;DHT22;412;51.400;7.480;2023-02-13T09:46:08;17.00;95.80
851;DHT22;412;51.400;7.480;2023-02-13T09:48:36;17.20;94.70
851;DHT22;412;51.400;7.480;2023-02-13T09:51:04;17.40;94.00
851;DHT22;412;51.400;7.480;2023-02-13T09:53:30;17.60;92.10
851;DHT22;412;51.400;7.480;2023-02-13T09:58:45;17.90;95.20
851;DHT22;412;51.400;7.480;2023-02-13T10:06:38;18.20;90.40
851;DHT22;412;51.400;7.480;2023-02-13T10:12:12;18.30;92.00
851;DHT22;412;51.400;7.480;2023-02-13T10:17:41;18.50;90.20
851;DHT22;412;51.400;7.480;2023-02-13T10:20:31;18.60;85.80
851;DHT22;412;51.400;7.480;2023-02-13T10:23:07;18.60;85.80
851;DHT22;412;51.400;7.480;2023-02-13T10:25:47;18.60;86.20
851;DHT22;412;51.400;7.480;2023-02-13T10:28:24;18.60;85.70
851;DHT22;412;51.400;7.480;2023-02-13T10:30:55;18.80;84.90
851;DHT22;412;51.400;7.480;2023-02-13T10:33:29;18.80;87.40
851;DHT22;412;51.400;7.480;2023-02-13T10:38:45;19.20;88.50
851;DHT22;412;51.400;7.480;2023-02-13T10:41:43;19.30;86.80
851;DHT22;412;51.400;7.480;2023-02-13T10:52:22;20.30;82.00
851;DHT22;412;51.400;7.480;2023-02-13T10:55:26;20.50;77.30
851;DHT22;412;51.400;7.480;2023-02-13T11:03:22;20.80;73.30
851;DHT22;412;51.400;7.480;2023-02-13T11:05:49;20.50;72.00
851;DHT22;412;51.400;7.480;2023-02-13T11:08:25;20.50;75.70
851;DHT22;412;51.400;7.480;2023-02-13T11:10:51;20.60;75.60
851;DHT22;412;51.400;7.480;2023-02-13T11:13:20;20.80;76.90
851;DHT22;412;51.400;7.480;2023-02-13T11:16:12;21.00;74.60
851;DHT22;412;51.400;7.480;2023-02-13T11:18:48;21.10;71.80
851;DHT22;412;51.400;7.480;2023-02-13T11:21:22;21.20;71.40
851;DHT22;412;51.400;7.480;2023-02-13T11:23:56;21.20;72.00
851;DHT22;412;51.400;7.480;2023-02-13T11:26:23;21.20;70.30
851;DHT22;412;51.400;7.480;2023-02-13T11:28:56;21.20;72.90
851;DHT22;412;51.400;7.480;2023-02-13T11:31:32;21.30;71.00
851;DHT22;412;51.400;7.480;2023-02-13T11:33:59;21.30;71.10
851;DHT22;412;51.400;7.480;2023-02-13T11:36:42;21.50;72.20
851;DHT22;412;51.400;7.480;2023-02-13T11:39:19;21.60;70.80
851;DHT22;412;51.400;7.480;2023-02-13T11:41:46;21.80;72.30
851;DHT22;412;51.400;7.480;2023-02-13T11:44:25;21.70;72.20
851;DHT22;412;51.400;7.480;2023-02-13T11:46:53;21.70;67.60
851;DHT22;412;51.400;7.480;2023-02-13T11:49:25;21.40;66.00
851;DHT22;412;51.400;7.480;2023-02-13T11:51:57;21.20;68.00
851;DHT22;412;51.400;7.480;2023-02-13T11:54:38;21.20;70.10
851;DHT22;412;51.400;7.480;2023-02-13T11:57:37;21.10;70.00
851;DHT22;412;51.400;7.480;2023-02-13T12:00:35;20.90;68.20
851;DHT22;412;51.400;7.480;2023-02-13T12:03:28;20.80;71.50
851;DHT22;412;51.400;7.480;2023-02-13T12:06:14;20.80;69.30
851;DHT22;412;51.400;7.480;2023-02-13T12:08:44;20.90;68.40
851;DHT22;412;51.400;7.480;2023-02-13T12:11:39;20.90;70.80
851;DHT22;412;51.400;7.480;2023-02-13T12:14:10;20.80;68.00
851;DHT22;412;51.400;7.480;2023-02-13T12:16:50;20.70;69.50
851;DHT22;412;51.400;7.480;2023-02-13T12:19:45;20.80;68.60
851;DHT22;412;51.400;7.480;2023-02-13T12:38:28;20.40;70.40
851;DHT22;412;51.400;7.480;2023-02-13T12:48:55;19.90;72.00
851;DHT22;412;51.400;7.480;2023-02-13T12:54:34;19.10;71.80
851;DHT22;412;51.400;7.480;2023-02-13T12:59:50;18.80;74.70
851;DHT22;412;51.400;7.480;2023-02-13T13:08:19;18.80;73.40
851;DHT22;412;51.400;7.480;2023-02-13T13:11:21;18.70;74.50
851;DHT22;412;51.400;7.480;2023-02-13T13:21:58;18.50;75.40
851;DHT22;412;51.400;7.480;2023-02-13T13:27:29;18.40;78.00
851;DHT22;412;51.400;7.480;2023-02-13T13:30:17;18.50;77.00
851;DHT22;412;51.400;7.480;2023-02-13T13:32:45;18.50;77.20
851;DHT22;412;51.400;7.480;2023-02-13T13:35:16;18.60;76.70
851;DHT22;412;51.400;7.480;2023-02-13T13:41:22;18.50;74.80
851;DHT22;412;51.400;7.480;2023-02-13T13:44:34;18.50;75.50
851;DHT22;412;51.400;7.480;2023-02-13T13:47:15;18.40;75.60
851;DHT22;412;51.400;7.480;2023-02-13T13:49:50;18.30;78.50
851;DHT22;412;51.400;7.480;2023-02-13T13:54:47;18.40;78.10
851;DHT22;412;51.400;7.480;2023-02-13T13:57:23;18.40;79.30
851;DHT22;412;51.400;7.480;2023-02-13T14:05:30;18.50;78.30
851;DHT22;412;51.400;7.480;2023-02-13T14:11:26;18.50;79.00
851;DHT22;412;51.400;7.480;2023-02-13T14:13:52;18.60;79.20
851;DHT22;412;51.400;7.480;2023-02-13T14:16:38;18.40;79.40
851;DHT22;412;51.400;7.480;2023-02-13T14:19:05;18.40;79.00
851;DHT22;412;51.400;7.480;2023-02-13T14:21:31;18.20;79.60
851;DHT22;412;51.400;7.480;2023-02-13T14:23:58;18.20;80.10
851;DHT22;412;51.400;7.480;2023-02-13T14:26:36;18.20;80.40
851;DHT22;412;51.400;7.480;2023-02-13T14:29:21;18.20;81.40
851;DHT22;412;51.400;7.480;2023-02-13T14:34:30;18.20;81.90
851;DHT22;412;51.400;7.480;2023-02-13T14:37:17;18.00;82.50
851;DHT22;412;51.400;7.480;2023-02-13T14:42:37;17.90;82.50
851;DHT22;412;51.400;7.480;2023-02-13T14:45:16;17.70;84.40
851;DHT22;412;51.400;7.480;2023-02-13T14:47:46;17.60;85.40
851;DHT22;412;51.400;7.480;2023-02-13T14:50:43;17.70;86.30
851;DHT22;412;51.400;7.480;2023-02-13T14:53:29;17.70;85.80
851;DHT22;412;51.400;7.480;2023-02-13T14:56:06;17.20;86.30
851;DHT22;412;51.400;7.480;2023-02-13T14:58:36;17.00;88.20
851;DHT22;412;51.400;7.480;2023-02-13T15:01:17;16.90;89.80
851;DHT22;412;51.400;7.480;2023-02-13T15:03:53;16.90;90.30
851;DHT22;412;51.400;7.480;2023-02-13T15:06:28;17.00;90.70
851;DHT22;412;51.400;7.480;2023-02-13T15:08:59;17.00;90.80
851;DHT22;412;51.400;7.480;2023-02-13T15:11:41;17.00;91.10
851;DHT22;412;51.400;7.480;2023-02-13T15:14:20;17.00;91.20
851;DHT22;412;51.400;7.480;2023-02-13T15:16:51;17.00;90.90
851;DHT22;412;51.400;7.480;2023-02-13T15:19:19;16.90;91.50
851;DHT22;412;51.400;7.480;2023-02-13T15:21:50;16.90;91.40
851;DHT22;412;51.400;7.480;2023-02-13T15:24:16;16.90;91.40
851;DHT22;412;51.400;7.480;2023-02-13T15:26:42;16.80;91.70
851;DHT22;412;51.400;7.480;2023-02-13T15:29:16;16.90;91.40
851;DHT22;412;51.400;7.480;2023-02-13T15:31:43;16.80;91.40
851;DHT22;412;51.400;7.480;2023-02-13T15:34:28;16.80;91.40
851;DHT22;412;51.400;7.480;2023-02-13T15:36:55;16.80;91.50
851;DHT22;412;51.400;7.480;2023-02-13T15:39:26;16.70;91.80
851;DHT22;412;51.400;7.480;2023-02-13T15:41:54;16.70;91.70
851;DHT22;412;51.400;7.480;2023-02-13T15:44:33;16.60;91.90
851;DHT22;412;51.400;7.480;2023-02-13T15:47:05;16.50;92.00
851;DHT22;412;51.400;7.480;2023-02-13T15:49:37;16.50;92.40
851;DHT22;412;51.400;7.480;2023-02-13T15:52:12;16.40;92.50
851;DHT22;412;51.400;7.480;2023-02-13T15:54:50;16.20;92.90
851;DHT22;412;51.400;7.480;2023-02-13T15:57:17;16.10;93.40
851;DHT22;412;51.400;7.480;2023-02-13T15:59:44;15.90;93.80
851;DHT22;412;51.400;7.480;2023-02-13T16:02:33;15.80;94.30
851;DHT22;412;51.400;7.480;2023-02-13T16:05:03;15.80;94.80
851;DHT22;412;51.400;7.480;2023-02-13T16:07:46;15.60;95.00
851;DHT22;412;51.400;7.480;2023-02-13T16:10:16;15.60;95.30
851;DHT22;412;51.400;7.480;2023-02-13T16:12:45;15.50;95.30
851;DHT22;412;51.400;7.480;2023-02-13T16:15:15;15.40;95.60
851;DHT22;412;51.400;7.480;2023-02-13T16:17:44;15.30;95.80
851;DHT22;412;51.400;7.480;2023-02-13T16:27:47;15.10;97.20
851;DHT22;412;51.400;7.480;2023-02-13T16:35:56;14.90;98.10
851;DHT22;412;51.400;7.480;2023-02-13T16:38:32;14.80;98.30
851;DHT22;412;51.400;7.480;2023-02-13T16:43:47;14.70;98.60
851;DHT22;412;51.400;7.480;2023-02-13T16:56:52;14.40;98.90
851;DHT22;412;51.400;7.480;2023-02-13T17:02:19;14.30;98.90
851;DHT22;412;51.400;7.480;2023-02-13T17:07:20;14.20;99.90
851;DHT22;412;51.400;7.480;2023-02-13T17:10:00;14.10;99.90
851;DHT22;412;51.400;7.480;2023-02-13T17:12:28;14.00;99.90
851;DHT22;412;51.400;7.480;2023-02-13T17:14:56;13.90;99.90
851;DHT22;412;51.400;7.480;2023-02-13T17:17:23;13.90;99.90
851;DHT22;412;51.400;7.480;2023-02-13T17:19:50;13.90;99.90
851;DHT22;412;51.400;7.480;2023-02-13T17:22:41;13.80;99.90
851;DHT22;412;51.400;7.480;2023-02-13T17:25:15;13.80;99.60
851;DHT22;412;51.400;7.480;2023-02-13T17:27:41;13.70;99.90
851;DHT22;412;51.400;7.480;2023-02-13T17:30:12;13.70;99.90
851;DHT22;412;51.400;7.480;2023-02-13T17:32:39;13.60;99.90
851;DHT22;412;51.400;7.480;2023-02-13T17:35:04;13.50;99.90
851;DHT22;412;51.400;7.480;2023-02-13T17:37:31;13.50;99.90
851;DHT22;412;51.400;7.480;2023-02-13T17:39:57;13.50;99.90
851;DHT22;412;51.400;7.480;2023-02-13T17:42:26;13.50;99.90
851;DHT22;412;51.400;7.480;2023-02-13T17:44:55;13.40;99.90
851;DHT22;412;51.400;7.480;2023-02-13T17:47:21;13.40;99.90
851;DHT22;412;51.400;7.480;2023-02-13T17:49:48;13.30;99.90
851;DHT22;412;51.400;7.480;2023-02-13T17:52:20;13.30;99.90
851;DHT22;412;51.400;7.480;2023-02-13T17:54:47;13.20;99.90
851;DHT22;412;51.400;7.480;2023-02-13T17:57:15;13.20;99.90
851;DHT22;412;51.400;7.480;2023-02-13T17:59:41;13.10;99.90
851;DHT22;412;51.400;7.480;2023-02-13T18:02:21;13.10;99.90
851;DHT22;412;51.400;7.480;2023-02-13T18:04:47;13.00;99.90
851;DHT22;412;51.400;7.480;2023-02-13T18:07:15;13.00;99.90
851;DHT22;412;51.400;7.480;2023-02-13T18:09:42;12.90;99.90
851;DHT22;412;51.400;7.480;2023-02-13T18:12:17;12.80;99.90
851;DHT22;412;51.400;7.480;2023-02-13T18:14:43;12.80;99.90
851;DHT22;412;51.400;7.480;2023-02-13T18:17:09;12.80;99.90
851;DHT22;412;51.400;7.480;2023-02-13T18:19:35;12.70;99.90
851;DHT22;412;51.400;7.480;2023-02-13T18:22:02;12.70;99.90
851;DHT22;412;51.400;7.480;2023-02-13T18:24:29;12.60;99.90
851;DHT22;412;51.400;7.480;2023-02-13T18:26:56;12.60;99.90
851;DHT22;412;51.400;7.480;2023-02-13T18:29:22;12.60;99.90
851;DHT22;412;51.400;7.480;2023-02-13T18:31:47;12.60;99.90
851;DHT22;412;51.400;7.480;2023-02-13T18:34:16;12.60;99.90
851;DHT22;412;51.400;7.480;2023-02-13T18:36:41;12.60;99.90
851;DHT22;412;51.400;7.480;2023-02-13T18:39:07;12.60;99.90
851;DHT22;412;51.400;7.480;2023-02-13T18:41:33;12.60;99.90
851;DHT22;412;51.400;7.480;2023-02-13T18:43:59;12.50;99.90
851;DHT22;412;51.400;7.480;2023-02-13T18:46:25;12.40;99.90
851;DHT22;412;51.400;7.480;2023-02-13T18:48:50;12.30;99.90
851;DHT22;412;51.400;7.480;2023-02-13T18:51:16;12.30;99.90
851;DHT22;412;51.400;7.480;2023-02-13T18:53:42;12.20;99.90
851;DHT22;412;51.400;7.480;2023-02-13T18:56:10;12.10;99.90
851;DHT22;412;51.400;7.480;2023-02-13T18:58:36;12.10;99.90
851;DHT22;412;51.400;7.480;2023-02-13T19:01:13;12.00;99.90
851;DHT22;412;51.400;7.480;2023-02-13T19:03:41;12.00;99.90
851;DHT22;412;51.400;7.480;2023-02-13T19:06:09;11.90;99.90
851;DHT22;412;51.400;7.480;2023-02-13T19:08:35;11.80;99.90
851;DHT22;412;51.400;7.480;2023-02-13T19:11:05;11.50;99.90
851;DHT22;412;51.400;7.480;2023-02-13T19:13:31;11.50;99.90
851;DHT22;412;51.400;7.480;2023-02-13T19:16:03;11.40;99.90
851;DHT22;412;51.400;7.480;2023-02-13T19:18:29;11.40;99.90
851;DHT22;412;51.400;7.480;2023-02-13T19:20:59;11.50;99.90
851;DHT22;412;51.400;7.480;2023-02-13T19:23:25;11.50;99.90
851;DHT22;412;51.400;7.480;2023-02-13T19:25:51;11.40;99.90
851;DHT22;412;51.400;7.480;2023-02-13T19:28:17;11.40;99.90
851;DHT22;412;51.400;7.480;2023-02-13T19:30:43;11.40;99.90
851;DHT22;412;51.400;7.480;2023-02-13T19:33:08;11.30;99.90
851;DHT22;412;51.400;7.480;2023-02-13T19:35:34;11.40;99.90
851;DHT22;412;51.400;7.480;2023-02-13T19:38:00;11.30;99.90